Time;durP1;ratioP1;P1;durP2;ratioP2;P2;SDS_P1;SDS_P2;PMS_P1;PMS_P2;Temp;Humidity;BMP_temperature;BMP_pressure;BME280_temperature;BME280_humidity;BME280_pressure;Samples;Min_cycle;Max_cycle;Signal;HPM_P1;HPM_P2
2023/06/07 00:00:49;;;;;;;8.03;7.33;;;13.40;99.90;;;;;;5070961;28;20484;-68
2023/06/07 00:03:17;;;;;;;7.83;7.20;;;13.30;99.90;;;;;;5071888;28;20439;-68
2023/06/07 00:05:45;;;;;;;8.27;6.77;;;13.20;99.90;;;;;;5071889;28;21032;-67
2023/06/07 00:08:13;;;;;;;7.90;7.27;;;13.20;99.90;;;;;;5071681;28;20493;-68
2023/06/07 00:10:41;;;;;;;7.23;6.63;;;13.10;99.90;;;;;;5071730;28;20463;-68
2023/06/07 00:13:09;;;;;;;7.20;6.60;;;13.10;99.90;;;;;;5071288;28;20508;-68
2023/06/07 00:15:38;;;;;;;9.53;7.63;;;13.10;99.90;;;;;;5071897;28;20473;-68
2023/06/07 00:18:07;;;;;;;9.10;7.53;;;13.00;99.90;;;;;;5071612;28;20439;-69
2023/06/07 00:20:35;;;;;;;8.03;7.40;;;13.00;99.90;;;;;;5071407;28;20463;-68
2023/06/07 00:23:04;;;;;;;6.97;6.37;;;12.90;99.90;;;;;;5071149;28;20558;-68
2023/06/07 00:25:32;;;;;;;7.87;7.27;;;12.90;99.90;;;;;;5071411;28;20836;-68
2023/06/07 00:28:00;;;;;;;7.67;7.00;;;12.80;99.90;;;;;;5071472;28;20447;-67
2023/06/07 00:30:28;;;;;;;8.33;7.50;;;12.90;99.90;;;;;;5071549;28;20461;-67
2023/06/07 00:32:57;;;;;;;8.17;7.40;;;12.80;99.90;;;;;;5071197;28;20538;-67
2023/06/07 00:35:25;;;;;;;7.87;7.17;;;12.80;99.90;;;;;;5071224;28;20451;-67
2023/06/07 00:37:53;;;;;;;7.30;6.70;;;12.60;99.90;;;;;;5071235;28;20535;-68
2023/06/07 00:40:21;;;;;;;7.40;6.70;;;12.60;99.90;;;;;;5071043;28;20466;-68
2023/06/07 00:42:49;;;;;;;7.93;6.80;;;12.70;99.90;;;;;;5070808;28;20492;-67
2023/06/07 00:45:17;;;;;;;7.60;6.93;;;12.70;99.90;;;;;;5071316;28;20476;-67
2023/06/07 00:47:45;;;;;;;9.20;8.40;;;12.60;99.90;;;;;;5071279;28;20439;-67
2023/06/07 00:50:15;;;;;;;7.53;6.83;;;12.60;99.90;;;;;;5071123;28;20461;-67
2023/06/07 00:52:45;;;;;;;8.93;8.03;;;12.70;99.90;;;;;;5070715;28;20705;-68
2023/06/07 00:55:14;;;;;;;7.47;6.97;;;12.60;99.90;;;;;;5070897;28;20881;-67
2023/06/07 00:57:42;;;;;;;9.00;8.20;;;12.60;99.90;;;;;;5070793;28;20866;-67
2023/06/07 01:00:13;;;;;;;9.13;8.33;;;12.50;99.90;;;;;;5070868;28;20465;-68
2023/06/07 01:02:46;;;;;;;8.10;7.50;;;12.40;99.90;;;;;;5070627;28;20482;-67
2023/06/07 01:05:17;;;;;;;7.60;7.10;;;12.40;99.90;;;;;;5070987;28;20442;-68
2023/06/07 01:07:46;;;;;;;8.80;8.00;;;12.30;99.90;;;;;;5071021;28;20438;-68
2023/06/07 01:10:15;;;;;;;9.30;8.60;;;12.30;99.90;;;;;;5070899;28;20473;-67
2023/06/07 01:12:44;;;;;;;10.17;8.60;;;12.30;99.90;;;;;;5069613;28;20435;-68
2023/06/07 01:15:13;;;;;;;9.57;8.87;;;12.30;99.90;;;;;;5070709;28;20520;-67
2023/06/07 01:17:44;;;;;;;9.37;8.50;;;12.10;99.90;;;;;;5070729;28;20450;-67
2023/06/07 01:20:16;;;;;;;8.07;7.47;;;12.10;99.90;;;;;;5070534;28;20472;-67
2023/06/07 01:22:47;;;;;;;8.80;7.90;;;12.10;99.90;;;;;;5070268;28;20481;-67
2023/06/07 01:25:16;;;;;;;8.23;7.63;;;12.00;99.90;;;;;;5070466;28;20510;-67
2023/06/07 01:27:46;;;;;;;8.50;7.80;;;12.00;99.90;;;;;;5070396;28;20438;-67
2023/06/07 01:30:14;;;;;;;9.43;8.70;;;12.00;99.90;;;;;;5070341;28;20457;-68
2023/06/07 01:32:43;;;;;;;9.37;8.60;;;12.00;99.90;;;;;;5070296;28;20447;-67
2023/06/07 01:35:13;;;;;;;10.27;9.27;;;11.90;99.90;;;;;;5070310;28;20445;-67
2023/06/07 01:37:42;;;;;;;9.30;8.60;;;11.70;99.90;;;;;;5070360;28;20446;-68
2023/06/07 01:40:12;;;;;;;10.40;9.60;;;11.80;99.90;;;;;;5070120;28;20469;-67
2023/06/07 01:42:42;;;;;;;9.87;9.07;;;11.80;99.90;;;;;;5069764;28;20482;-67
2023/06/07 01:45:11;;;;;;;9.30;8.50;;;11.80;99.90;;;;;;5070504;28;20880;-67
2023/06/07 01:47:40;;;;;;;9.77;9.07;;;11.80;99.90;;;;;;5070236;28;20449;-67
2023/06/07 01:50:09;;;;;;;9.60;8.80;;;11.70;99.90;;;;;;5070222;28;20468;-69
2023/06/07 01:52:37;;;;;;;9.57;8.67;;;11.80;99.90;;;;;;5070122;28;20845;-68
2023/06/07 01:55:06;;;;;;;9.73;8.93;;;11.70;99.90;;;;;;5070167;28;20537;-68
2023/06/07 01:57:45;;;;;;;9.47;8.67;;;11.70;99.90;;;;;;5069938;28;20446;-68
2023/06/07 02:00:23;;;;;;;10.20;9.10;;;11.60;99.90;;;;;;5070074;28;20827;-68
2023/06/07 02:02:56;;;;;;;9.97;9.17;;;11.60;99.90;;;;;;5068477;28;20485;-68
2023/06/07 02:05:34;;;;;;;10.60;9.70;;;11.60;99.90;;;;;;5069864;28;20438;-68
2023/06/07 02:08:14;;;;;;;10.77;9.87;;;11.50;99.90;;;;;;5070082;28;20895;-68
2023/06/07 02:10:45;;;;;;;10.00;9.20;;;11.50;99.90;;;;;;5069885;28;20453;-67
2023/06/07 02:13:16;;;;;;;8.80;8.20;;;11.50;99.90;;;;;;5069603;28;20436;-68
2023/06/07 02:15:45;;;;;;;10.20;9.37;;;11.70;99.90;;;;;;5070023;28;20437;-68
2023/06/07 02:18:19;;;;;;;9.47;8.67;;;11.70;99.90;;;;;;5069523;28;20997;-68
2023/06/07 02:20:47;;;;;;;9.70;8.90;;;11.60;99.90;;;;;;5069895;28;20459;-68
2023/06/07 02:23:15;;;;;;;9.20;8.50;;;11.60;99.90;;;;;;5069570;28;21337;-68
2023/06/07 02:25:43;;;;;;;9.10;8.47;;;11.50;99.90;;;;;;5074039;28;20479;-68
2023/06/07 02:28:11;;;;;;;9.87;9.07;;;11.30;99.90;;;;;;5073820;28;20440;-67
2023/06/07 02:30:40;;;;;;;10.10;9.37;;;11.30;99.90;;;;;;5073911;28;20483;-67
2023/06/07 02:33:09;;;;;;;10.83;9.00;;;11.40;99.90;;;;;;5074089;28;20463;-68
2023/06/07 02:35:37;;;;;;;11.07;10.17;;;11.30;99.90;;;;;;5074421;28;20943;-67
2023/06/07 02:38:06;;;;;;;10.80;9.90;;;11.30;99.90;;;;;;5075636;28;20499;-68
2023/06/07 02:40:34;;;;;;;11.10;10.20;;;11.20;99.90;;;;;;5076130;28;20460;-68
2023/06/07 02:43:02;;;;;;;10.50;9.70;;;11.20;99.90;;;;;;5073764;28;20477;-68
2023/06/07 02:45:30;;;;;;;10.57;9.47;;;11.30;99.90;;;;;;5074263;28;20890;-68
2023/06/07 02:47:59;;;;;;;10.70;9.80;;;11.20;99.90;;;;;;5074439;28;20549;-67
2023/06/07 02:50:27;;;;;;;10.20;9.40;;;11.20;99.90;;;;;;5073816;28;20552;-68
2023/06/07 02:52:55;;;;;;;11.00;9.60;;;11.20;99.90;;;;;;5081400;28;20436;-68
2023/06/07 02:55:24;;;;;;;10.73;9.73;;;11.10;99.90;;;;;;5085900;28;20834;-69
2023/06/07 02:57:52;;;;;;;10.87;9.77;;;11.20;99.90;;;;;;5085459;28;20446;-68
2023/06/07 03:00:20;;;;;;;11.73;10.83;;;11.10;99.90;;;;;;5086151;28;20463;-68
2023/06/07 03:02:48;;;;;;;11.67;10.70;;;11.10;99.90;;;;;;5080992;28;20479;-67
2023/06/07 03:05:18;;;;;;;11.67;10.67;;;11.10;99.90;;;;;;5081024;28;20444;-67
2023/06/07 03:07:46;;;;;;;11.90;10.90;;;11.10;99.90;;;;;;5082736;28;20457;-68
2023/06/07 03:10:14;;;;;;;12.27;11.10;;;11.10;99.90;;;;;;5086105;28;20963;-67
2023/06/07 03:12:42;;;;;;;12.17;11.17;;;11.10;99.90;;;;;;5086425;28;20522;-68
2023/06/07 03:15:10;;;;;;;11.83;10.90;;;11.10;99.90;;;;;;5080000;28;20937;-67
2023/06/07 03:17:41;;;;;;;11.90;10.70;;;11.00;99.90;;;;;;5075351;28;20922;-67
2023/06/07 03:20:10;;;;;;;11.73;10.83;;;10.90;99.90;;;;;;5075643;28;20521;-67
2023/06/07 03:22:40;;;;;;;15.80;11.70;;;10.90;99.90;;;;;;5074090;28;20528;-68
2023/06/07 03:25:08;;;;;;;12.83;11.80;;;10.90;99.90;;;;;;5074278;28;20544;-68
2023/06/07 03:27:37;;;;;;;12.20;11.00;;;11.10;99.90;;;;;;5080535;28;20522;-69
2023/06/07 03:30:06;;;;;;;11.73;10.63;;;11.20;99.90;;;;;;5084651;28;20482;-68
2023/06/07 03:32:34;;;;;;;12.60;11.50;;;11.30;99.90;;;;;;5084465;28;20556;-68
2023/06/07 03:35:02;;;;;;;12.83;11.63;;;11.30;99.90;;;;;;5082632;28;20445;-68
2023/06/07 03:37:30;;;;;;;13.13;12.13;;;11.20;99.90;;;;;;5082696;28;20451;-68
2023/06/07 03:39:59;;;;;;;12.10;11.10;;;11.20;99.90;;;;;;5076543;28;20461;-68
2023/06/07 03:42:27;;;;;;;12.07;11.17;;;11.10;99.90;;;;;;5072760;28;20556;-68
2023/06/07 03:44:55;;;;;;;12.70;11.60;;;11.00;99.90;;;;;;5072606;28;20446;-67
2023/06/07 03:47:23;;;;;;;12.67;11.47;;;11.00;99.90;;;;;;5072499;28;20442;-68
2023/06/07 03:49:51;;;;;;;16.87;15.50;;;11.00;99.90;;;;;;5072487;28;20470;-68
2023/06/07 03:52:19;;;;;;;14.17;12.27;;;10.90;99.90;;;;;;5072420;28;20874;-68
2023/06/07 03:54:47;;;;;;;12.90;11.90;;;10.90;99.90;;;;;;5072118;28;20460;-67
2023/06/07 03:57:16;;;;;;;12.23;11.23;;;11.00;99.90;;;;;;5072818;28;20435;-68
2023/06/07 03:59:44;;;;;;;12.33;11.23;;;11.20;99.90;;;;;;5072438;28;20459;-68
2023/06/07 04:02:12;;;;;;;11.97;10.97;;;11.20;99.90;;;;;;5072085;28;20964;-67
2023/06/07 04:04:40;;;;;;;11.10;10.23;;;11.30;99.90;;;;;;5071774;28;20609;-67
2023/06/07 04:07:08;;;;;;;11.40;10.40;;;11.30;99.90;;;;;;5072002;28;20447;-67
2023/06/07 04:09:36;;;;;;;10.13;9.33;;;11.30;99.90;;;;;;5072255;28;20464;-68
2023/06/07 04:12:06;;;;;;;11.80;10.80;;;11.50;99.90;;;;;;5072122;28;20449;-68
2023/06/07 04:14:35;;;;;;;11.40;10.40;;;11.50;99.90;;;;;;5071862;28;20480;-68
2023/06/07 04:17:03;;;;;;;10.53;9.63;;;11.50;99.90;;;;;;5071839;28;20446;-68
2023/06/07 04:19:31;;;;;;;9.90;9.20;;;11.60;99.90;;;;;;5071919;28;20529;-66
2023/06/07 04:21:59;;;;;;;10.17;9.47;;;11.70;99.90;;;;;;5071961;28;20813;-67
2023/06/07 04:24:27;;;;;;;11.57;10.37;;;11.80;99.90;;;;;;5071792;28;20568;-66
2023/06/07 04:26:56;;;;;;;10.37;9.57;;;11.80;99.90;;;;;;5071976;28;20440;-67
2023/06/07 04:29:25;;;;;;;10.33;9.43;;;12.00;99.90;;;;;;5071683;28;20458;-67
2023/06/07 04:31:56;;;;;;;11.40;10.40;;;12.10;99.90;;;;;;5071691;28;20952;-67
2023/06/07 04:34:25;;;;;;;11.60;10.70;;;12.10;99.90;;;;;;5071824;28;20444;-67
2023/06/07 04:36:53;;;;;;;11.20;10.30;;;12.20;99.90;;;;;;5072007;28;20475;-67
2023/06/07 04:39:21;;;;;;;11.60;10.50;;;12.10;99.90;;;;;;5071716;28;20556;-68
2023/06/07 04:41:52;;;;;;;11.23;10.33;;;12.10;99.90;;;;;;5071606;28;20531;-67
2023/06/07 04:44:28;;;;;;;11.30;10.20;;;12.10;99.90;;;;;;5071645;28;20485;-66
2023/06/07 04:46:59;;;;;;;9.60;8.83;;;12.20;99.90;;;;;;5071851;28;20437;-68
2023/06/07 04:49:38;;;;;;;11.80;10.73;;;12.30;99.90;;;;;;5071690;28;20981;-67
2023/06/07 04:52:07;;;;;;;11.23;10.33;;;12.30;99.90;;;;;;5071819;28;20444;-68
2023/06/07 04:54:36;;;;;;;11.70;10.60;;;12.30;99.90;;;;;;5071309;28;20894;-68
2023/06/07 04:57:06;;;;;;;9.77;9.00;;;12.40;99.90;;;;;;5071907;28;20446;-67
2023/06/07 04:59:41;;;;;;;10.77;9.70;;;12.50;99.90;;;;;;5071474;28;20463;-69
2023/06/07 05:02:11;;;;;;;11.60;10.53;;;12.50;99.90;;;;;;5071297;28;20439;-68
2023/06/07 05:04:40;;;;;;;9.80;8.90;;;12.60;99.90;;;;;;5071031;28;20882;-67
2023/06/07 05:07:08;;;;;;;10.70;9.80;;;12.80;99.90;;;;;;5071104;28;20450;-67
2023/06/07 05:09:40;;;;;;;11.10;10.10;;;12.80;99.90;;;;;;5071838;28;20496;-68
2023/06/07 05:12:08;;;;;;;10.97;9.87;;;12.90;99.90;;;;;;5071399;28;20508;-68
2023/06/07 05:14:36;;;;;;;9.30;8.50;;;12.90;99.90;;;;;;5070544;28;20439;-68
2023/06/07 05:17:05;;;;;;;11.70;10.80;;;13.10;99.90;;;;;;5070754;28;20509;-68
2023/06/07 05:19:34;;;;;;;10.67;9.87;;;13.20;99.90;;;;;;5070259;28;20463;-68
2023/06/07 05:22:02;;;;;;;10.67;9.87;;;13.20;99.90;;;;;;5070355;28;20971;-67
2023/06/07 05:24:30;;;;;;;10.40;9.57;;;13.30;99.90;;;;;;5070268;28;20497;-68
2023/06/07 05:26:58;;;;;;;10.00;9.30;;;13.30;99.90;;;;;;5070526;28;20441;-68
2023/06/07 05:29:26;;;;;;;11.87;10.80;;;13.40;99.90;;;;;;5070387;28;20477;-68
2023/06/07 05:31:54;;;;;;;10.40;9.60;;;13.50;99.90;;;;;;5070265;28;20818;-68
2023/06/07 05:34:22;;;;;;;10.37;9.57;;;13.60;99.90;;;;;;5069987;28;20439;-68
2023/06/07 05:36:52;;;;;;;8.97;8.33;;;13.80;99.90;;;;;;5070218;28;20447;-68
2023/06/07 05:39:19;;;;;;;9.97;9.03;;;13.90;99.90;;;;;;5070413;28;20463;-68
2023/06/07 05:41:47;;;;;;;9.10;8.30;;;14.00;99.90;;;;;;5070314;28;20504;-68
2023/06/07 05:44:15;;;;;;;8.80;7.90;;;14.20;99.90;;;;;;5070057;28;20478;-68
2023/06/07 05:46:43;;;;;;;9.77;9.00;;;14.30;99.90;;;;;;5070408;28;20451;-68
2023/06/07 05:49:11;;;;;;;10.17;9.33;;;14.40;99.90;;;;;;5070346;28;20490;-67
2023/06/07 05:51:40;;;;;;;10.60;9.80;;;14.50;99.90;;;;;;5070017;28;20956;-68
2023/06/07 05:54:09;;;;;;;9.53;8.73;;;14.40;99.40;;;;;;5069764;28;20488;-68
2023/06/07 05:56:37;;;;;;;10.13;9.33;;;14.50;99.90;;;;;;5069987;28;20452;-68
2023/06/07 05:59:06;;;;;;;10.23;9.30;;;14.70;99.90;;;;;;5069519;28;20473;-68
2023/06/07 06:01:35;;;;;;;9.80;9.00;;;14.80;98.60;;;;;;5070039;28;20432;-68
2023/06/07 06:04:03;;;;;;;13.53;8.80;;;14.90;98.20;;;;;;5069563;28;20467;-68
2023/06/07 06:06:31;;;;;;;11.50;9.13;;;15.00;98.30;;;;;;5069813;28;20864;-68
2023/06/07 06:08:59;;;;;;;9.23;8.53;;;15.00;98.20;;;;;;5069944;28;21006;-67
2023/06/07 06:11:28;;;;;;;9.33;8.53;;;15.10;98.30;;;;;;5069722;28;20442;-68
2023/06/07 06:13:56;;;;;;;11.20;8.87;;;15.30;98.30;;;;;;5069668;28;20445;-68
2023/06/07 06:16:24;;;;;;;8.93;8.27;;;15.40;97.00;;;;;;5070021;28;20451;-67
2023/06/07 06:18:52;;;;;;;9.23;8.37;;;15.40;97.40;;;;;;5069951;28;20440;-68
2023/06/07 06:21:20;;;;;;;9.07;8.20;;;15.60;96.80;;;;;;5069853;28;20442;-68
2023/06/07 06:23:48;;;;;;;8.23;7.53;;;15.60;96.30;;;;;;5069406;28;20456;-68
2023/06/07 06:26:21;;;;;;;9.60;8.80;;;15.70;96.70;;;;;;5069447;28;20467;-68
2023/06/07 06:28:50;;;;;;;8.70;7.63;;;15.90;96.80;;;;;;5069725;28;20438;-68
2023/06/07 06:31:18;;;;;;;9.90;9.03;;;15.90;96.10;;;;;;5069793;28;20435;-68
2023/06/07 06:33:46;;;;;;;8.87;8.17;;;16.00;97.20;;;;;;5069447;28;20458;-68
2023/06/07 06:36:15;;;;;;;11.00;8.37;;;16.20;96.80;;;;;;5069637;28;20439;-68
2023/06/07 06:38:43;;;;;;;8.67;7.97;;;16.20;96.50;;;;;;5069655;28;20435;-69
2023/06/07 06:41:11;;;;;;;8.80;8.10;;;16.40;95.60;;;;;;5070230;28;20920;-69
2023/06/07 06:43:39;;;;;;;8.73;8.13;;;16.50;95.70;;;;;;5069958;28;20477;-68
2023/06/07 06:46:08;;;;;;;7.83;7.07;;;16.70;95.10;;;;;;5069928;28;20536;-68
2023/06/07 06:48:37;;;;;;;8.10;7.40;;;16.80;94.50;;;;;;5069451;28;20438;-68
2023/06/07 06:51:05;;;;;;;8.70;7.90;;;17.10;93.90;;;;;;5069325;28;20439;-68
2023/06/07 06:53:34;;;;;;;8.30;7.70;;;17.20;93.20;;;;;;5069207;28;20489;-68
2023/06/07 06:56:02;;;;;;;7.80;7.30;;;17.30;94.50;;;;;;5069376;28;20436;-67
2023/06/07 06:58:34;;;;;;;8.17;7.47;;;17.40;94.50;;;;;;5069394;28;20443;-68
2023/06/07 07:01:03;;;;;;;8.43;6.80;;;17.40;92.70;;;;;;5069455;28;20707;-67
2023/06/07 07:03:32;;;;;;;6.70;6.17;;;17.50;93.20;;;;;;5068834;28;20802;-68
2023/06/07 07:06:00;;;;;;;7.17;6.57;;;17.50;93.40;;;;;;5069387;28;20591;-67
2023/06/07 07:08:28;;;;;;;8.10;7.30;;;17.60;92.90;;;;;;5069158;28;20933;-67
2023/06/07 07:10:56;;;;;;;7.13;6.47;;;17.70;92.40;;;;;;5071905;28;20476;-68
2023/06/07 07:13:24;;;;;;;7.33;6.83;;;17.70;92.70;;;;;;5072569;28;20464;-68
2023/06/07 07:15:52;;;;;;;7.50;6.90;;;17.90;92.90;;;;;;5072950;28;20868;-68
2023/06/07 07:18:20;;;;;;;7.20;6.70;;;18.00;91.70;;;;;;5072596;28;20490;-67
2023/06/07 07:20:49;;;;;;;7.23;6.73;;;18.20;91.30;;;;;;5072615;28;20455;-67
2023/06/07 07:23:17;;;;;;;6.60;6.10;;;18.30;91.10;;;;;;5072608;28;20434;-68
2023/06/07 07:25:45;;;;;;;6.93;6.43;;;18.40;90.80;;;;;;5072728;28;20522;-68
2023/06/07 07:28:13;;;;;;;7.17;6.57;;;18.50;90.60;;;;;;5072632;28;20451;-68
2023/06/07 07:30:41;;;;;;;6.77;6.27;;;18.50;90.10;;;;;;5072286;28;20458;-68
2023/06/07 07:33:11;;;;;;;6.37;5.77;;;18.40;90.20;;;;;;5072652;28;20443;-67
2023/06/07 07:35:42;;;;;;;6.40;5.80;;;18.50;90.50;;;;;;5072548;28;20435;-67
2023/06/07 07:38:15;;;;;;;6.60;6.00;;;18.50;89.50;;;;;;5072473;28;20469;-68
2023/06/07 07:40:44;;;;;;;6.87;5.77;;;18.50;88.90;;;;;;5072423;28;21033;-67
2023/06/07 07:43:13;;;;;;;6.77;6.27;;;18.50;89.30;;;;;;5072158;28;20911;-67
2023/06/07 07:45:41;;;;;;;6.13;5.70;;;18.60;89.10;;;;;;5072451;28;20483;-67
2023/06/07 07:48:09;;;;;;;6.33;5.83;;;18.80;88.50;;;;;;5072399;28;20441;-68
2023/06/07 07:50:40;;;;;;;5.70;5.20;;;18.80;89.00;;;;;;5072221;28;20463;-67
2023/06/07 07:53:10;;;;;;;5.10;4.70;;;19.00;90.50;;;;;;5072004;28;20435;-67
2023/06/07 07:55:43;;;;;;;6.20;5.70;;;19.10;86.60;;;;;;5072189;28;20847;-67
2023/06/07 07:58:11;;;;;;;6.93;5.07;;;19.20;86.20;;;;;;5072564;28;20530;-68
2023/06/07 08:00:40;;;;;;;4.97;4.57;;;19.30;85.20;;;;;;5072139;28;20469;-68
2023/06/07 08:03:09;;;;;;;4.20;3.90;;;19.30;85.10;;;;;;5072036;28;20494;-67
2023/06/07 08:05:40;;;;;;;4.73;4.37;;;19.50;86.20;;;;;;5072295;28;20489;-67
2023/06/07 08:08:08;;;;;;;4.33;3.93;;;19.40;82.80;;;;;;5072068;28;20442;-68
2023/06/07 08:10:36;;;;;;;4.37;4.07;;;19.40;83.70;;;;;;5072102;28;20549;-68
2023/06/07 08:13:05;;;;;;;5.20;4.80;;;19.60;82.80;;;;;;5071576;28;20451;-67
2023/06/07 08:15:33;;;;;;;4.93;4.53;;;19.80;85.20;;;;;;5071973;28;20512;-68
2023/06/07 08:18:01;;;;;;;5.10;4.70;;;20.10;82.30;;;;;;5071629;28;20966;-68
2023/06/07 08:20:29;;;;;;;4.93;4.40;;;20.20;81.60;;;;;;5071818;28;20474;-68
2023/06/07 08:22:57;;;;;;;7.00;4.70;;;20.30;80.30;;;;;;5070521;28;20485;-68
2023/06/07 08:25:25;;;;;;;4.30;4.00;;;20.30;79.30;;;;;;5071764;28;21194;-68
2023/06/07 08:27:53;;;;;;;5.10;4.70;;;20.30;79.80;;;;;;5071546;28;20820;-68
2023/06/07 08:30:23;;;;;;;5.27;4.87;;;20.40;81.10;;;;;;5071536;28;20499;-69
2023/06/07 08:32:51;;;;;;;3.80;3.50;;;20.60;79.90;;;;;;5071097;28;20443;-69
2023/06/07 08:35:19;;;;;;;3.63;3.33;;;20.80;79.90;;;;;;5071416;28;20439;-67
2023/06/07 08:37:47;;;;;;;4.30;3.30;;;20.90;78.80;;;;;;5072931;28;20494;-68
2023/06/07 08:40:18;;;;;;;8.13;4.20;;;21.10;79.30;;;;;;5071500;28;20875;-67
2023/06/07 08:42:47;;;;;;;4.20;3.80;;;21.30;80.00;;;;;;5071075;28;20447;-68
2023/06/07 08:45:16;;;;;;;3.50;3.30;;;21.50;77.10;;;;;;5071180;28;20523;-67
2023/06/07 08:47:45;;;;;;;3.83;3.53;;;21.60;75.80;;;;;;5071027;28;20439;-68
2023/06/07 08:50:16;;;;;;;3.53;3.33;;;21.60;75.20;;;;;;5071384;28;20813;-67
2023/06/07 08:52:48;;;;;;;4.40;4.00;;;21.80;74.40;;;;;;5070868;28;20534;-68
2023/06/07 08:55:16;;;;;;;3.30;3.00;;;22.00;74.80;;;;;;5071015;28;20541;-68
2023/06/07 08:57:50;;;;;;;3.60;3.03;;;22.30;72.50;;;;;;5071098;28;20455;-68
2023/06/07 09:00:22;;;;;;;4.43;3.50;;;22.40;73.50;;;;;;5070822;28;20459;-69
2023/06/07 09:02:52;;;;;;;3.63;3.33;;;22.70;71.10;;;;;;5070531;28;20446;-68
2023/06/07 09:05:21;;;;;;;2.80;2.60;;;22.90;70.10;;;;;;5070799;28;20534;-68
2023/06/07 09:07:49;;;;;;;2.60;2.40;;;23.10;69.60;;;;;;5070833;28;20496;-67
2023/06/07 09:10:18;;;;;;;3.03;2.83;;;23.40;66.00;;;;;;5070638;28;20467;-67
2023/06/07 09:12:46;;;;;;;4.83;3.50;;;23.80;68.70;;;;;;5070336;28;20497;-67
2023/06/07 09:15:18;;;;;;;3.80;3.40;;;24.10;63.20;;;;;;5070830;28;20473;-67
2023/06/07 09:17:53;;;;;;;3.37;3.07;;;24.50;66.20;;;;;;5070667;28;20435;-68
2023/06/07 09:20:22;;;;;;;3.07;2.83;;;24.80;61.90;;;;;;5070559;28;20872;-67
2023/06/07 09:23:01;;;;;;;2.37;2.17;;;24.90;60.90;;;;;;5070285;28;20479;-67
2023/06/07 09:25:30;;;;;;;3.07;2.87;;;24.90;59.90;;;;;;5070235;28;20450;-67
2023/06/07 09:27:58;;;;;;;2.73;2.53;;;24.80;59.30;;;;;;5070395;28;20443;-67
2023/06/07 09:30:26;;;;;;;5.13;2.90;;;24.80;59.30;;;;;;5070364;28;20475;-67
2023/06/07 09:32:55;;;;;;;2.80;2.60;;;24.70;58.80;;;;;;5069491;28;20473;-66
2023/06/07 09:35:25;;;;;;;3.23;3.03;;;24.50;59.70;;;;;;5070057;28;20439;-66
2023/06/07 09:37:54;;;;;;;3.70;3.40;;;24.10;62.40;;;;;;5070279;28;20444;-67
2023/06/07 09:40:24;;;;;;;4.20;3.80;;;24.10;62.20;;;;;;5070034;28;20463;-68
2023/06/07 09:42:59;;;;;;;3.97;3.60;;;24.10;61.70;;;;;;5070012;28;20450;-68
2023/06/07 09:45:28;;;;;;;2.83;2.63;;;23.90;62.00;;;;;;5070108;28;20854;-67
2023/06/07 09:48:05;;;;;;;3.40;2.80;;;23.80;61.50;;;;;;5070228;28;20439;-67
2023/06/07 09:50:33;;;;;;;3.50;2.70;;;23.80;61.00;;;;;;5070130;28;20458;-67
2023/06/07 09:53:02;;;;;;;3.10;2.53;;;24.10;63.00;;;;;;5069703;28;20439;-68
2023/06/07 09:55:31;;;;;;;4.17;2.97;;;24.60;57.90;;;;;;5069759;28;20504;-69
2023/06/07 09:57:59;;;;;;;1.93;1.83;;;24.80;57.50;;;;;;5069901;28;20955;-67
2023/06/07 10:00:27;;;;;;;2.30;2.10;;;25.30;56.30;;;;;;5069830;28;20457;-67
2023/06/07 10:03:06;;;;;;;1.80;1.70;;;25.60;53.40;;;;;;5069553;28;20474;-68
2023/06/07 10:05:35;;;;;;;1.73;1.63;;;25.90;55.40;;;;;;5069967;28;20435;-68
2023/06/07 10:08:05;;;;;;;2.50;1.97;;;26.60;52.30;;;;;;5070056;28;20504;-67
2023/06/07 10:10:35;;;;;;;2.10;1.40;;;27.40;52.20;;;;;;5070079;28;20478;-68
2023/06/07 10:13:05;;;;;;;2.13;1.47;;;28.40;50.00;;;;;;5069510;28;20493;-68
2023/06/07 10:15:35;;;;;;;2.60;1.70;;;29.30;47.60;;;;;;5070033;28;20443;-68
2023/06/07 10:18:16;;;;;;;2.03;1.83;;;30.10;44.40;;;;;;5070066;28;20478;-68
2023/06/07 10:20:52;;;;;;;2.70;2.50;;;29.50;44.60;;;;;;5069900;28;20843;-67
2023/06/07 10:23:28;;;;;;;3.57;2.30;;;28.60;48.50;;;;;;5069879;28;20437;-67
2023/06/07 10:26:03;;;;;;;2.93;2.60;;;27.70;50.00;;;;;;5069945;28;20526;-68
2023/06/07 10:28:44;;;;;;;3.60;2.43;;;27.00;51.50;;;;;;5070024;28;20443;-68
2023/06/07 10:31:13;;;;;;;4.03;2.90;;;27.70;50.70;;;;;;5070025;28;20439;-68
2023/06/07 10:33:43;;;;;;;3.43;2.57;;;28.30;48.20;;;;;;5069623;28;20980;-68
2023/06/07 10:36:12;;;;;;;2.63;2.37;;;28.40;48.70;;;;;;5069496;28;20434;-67
2023/06/07 10:38:42;;;;;;;3.63;2.20;;;28.20;49.00;;;;;;5069745;28;20977;-67
2023/06/07 10:41:11;;;;;;;3.23;2.10;;;27.80;49.60;;;;;;5069859;28;20537;-68
2023/06/07 10:43:46;;;;;;;2.90;2.70;;;28.00;48.90;;;;;;5071398;28;20491;-68
2023/06/07 10:46:19;;;;;;;2.77;2.10;;;27.90;49.30;;;;;;5079833;28;20438;-68
2023/06/07 10:48:48;;;;;;;2.77;2.57;;;27.80;47.00;;;;;;5073947;28;20449;-68
2023/06/07 10:51:17;;;;;;;2.37;2.17;;;27.40;48.10;;;;;;5073500;28;20431;-68
2023/06/07 10:53:57;;;;;;;2.57;2.20;;;27.70;47.70;;;;;;5073296;28;20875;-68
2023/06/07 10:56:32;;;;;;;2.30;2.07;;;28.40;46.30;;;;;;5073451;28;20474;-68
2023/06/07 10:59:21;;;;;;;3.23;2.03;;;28.90;44.80;;;;;;5073062;28;20466;-68
2023/06/07 11:01:52;;;;;;;3.20;2.50;;;28.90;47.40;;;;;;5073707;28;20855;-68
2023/06/07 11:04:57;;;;;;;2.23;2.13;;;29.60;46.40;;;;;;5073031;28;20860;-68
2023/06/07 11:07:30;;;;;;;3.17;2.30;;;30.20;44.40;;;;;;5073117;28;20485;-68
2023/06/07 11:10:33;;;;;;;2.90;2.70;;;29.50;44.50;;;;;;5073125;28;20520;-68
2023/06/07 11:13:01;;;;;;;2.83;2.63;;;28.20;45.90;;;;;;5072675;28;20446;-68
2023/06/07 11:15:35;;;;;;;2.43;2.33;;;27.00;47.80;;;;;;5073062;28;20473;-68
2023/06/07 11:18:05;;;;;;;3.53;2.43;;;25.90;50.30;;;;;;5072849;28;20435;-67
2023/06/07 11:20:52;;;;;;;3.23;2.83;;;25.80;51.60;;;;;;5073015;28;20491;-67
2023/06/07 11:23:26;;;;;;;3.27;2.97;;;26.20;50.70;;;;;;5072638;28;20445;-69
2023/06/07 11:25:58;;;;;;;2.73;2.53;;;27.10;49.30;;;;;;5072863;28;20442;-68
2023/06/07 11:28:27;;;;;;;2.97;2.77;;;27.60;47.70;;;;;;5073078;28;20486;-68
2023/06/07 11:30:56;;;;;;;2.53;2.33;;;27.70;48.50;;;;;;5072835;28;20928;-68
2023/06/07 11:33:25;;;;;;;2.80;2.60;;;28.60;46.50;;;;;;5073755;28;20446;-69
2023/06/07 11:35:55;;;;;;;2.43;2.33;;;28.90;44.50;;;;;;5073548;28;20463;-68
2023/06/07 11:38:26;;;;;;;2.80;2.40;;;28.30;45.70;;;;;;5072708;28;20801;-68
2023/06/07 11:40:55;;;;;;;2.57;2.37;;;28.00;46.00;;;;;;5072721;28;20564;-68
2023/06/07 11:43:25;;;;;;;3.00;2.80;;;27.30;46.40;;;;;;5072322;28;20439;-68
2023/06/07 11:45:57;;;;;;;2.83;2.63;;;27.10;49.70;;;;;;5072567;28;20466;-69
2023/06/07 11:48:27;;;;;;;2.80;2.60;;;27.50;49.40;;;;;;5072521;28;20518;-68
2023/06/07 11:50:55;;;;;;;2.97;2.77;;;28.30;52.10;;;;;;5072356;28;20467;-69
2023/06/07 11:53:28;;;;;;;2.73;2.40;;;29.30;45.10;;;;;;5071951;28;20467;-68
2023/06/07 11:55:56;;;;;;;3.47;2.60;;;29.80;46.60;;;;;;5071877;28;20445;-68
2023/06/07 11:58:25;;;;;;;2.63;2.43;;;30.10;44.30;;;;;;5072382;28;21128;-68
2023/06/07 12:00:53;;;;;;;3.30;2.40;;;29.80;43.30;;;;;;5072166;28;20980;-68
2023/06/07 12:03:22;;;;;;;2.67;2.47;;;29.30;43.60;;;;;;5071905;28;20505;-68
2023/06/07 12:05:52;;;;;;;2.73;2.53;;;29.10;44.80;;;;;;5072037;28;20439;-68
2023/06/07 12:08:20;;;;;;;2.77;2.53;;;29.00;44.70;;;;;;5072320;28;20479;-67
2023/06/07 12:10:54;;;;;;;2.73;2.53;;;28.50;44.30;;;;;;5072033;28;20467;-68
2023/06/07 12:13:23;;;;;;;2.57;2.43;;;28.40;44.70;;;;;;5072027;28;20445;-67
2023/06/07 12:15:55;;;;;;;2.70;2.50;;;28.30;44.80;;;;;;5072133;28;20449;-67
2023/06/07 12:18:26;;;;;;;4.00;2.43;;;28.00;44.80;;;;;;5071989;28;20431;-68
2023/06/07 12:21:03;;;;;;;2.80;2.60;;;28.50;43.40;;;;;;5072416;28;20459;-68
2023/06/07 12:23:31;;;;;;;2.50;2.30;;;29.00;43.30;;;;;;5071820;28;21031;-67
2023/06/07 12:26:08;;;;;;;2.70;2.50;;;29.50;41.70;;;;;;5072009;28;20447;-67
2023/06/07 12:28:38;;;;;;;2.67;2.40;;;29.50;44.00;;;;;;5071779;28;20474;-68
2023/06/07 12:31:15;;;;;;;2.50;2.30;;;30.60;42.30;;;;;;5071591;28;20457;-68
2023/06/07 12:33:53;;;;;;;2.50;2.30;;;31.00;39.80;;;;;;5071379;28;20960;-68
2023/06/07 12:36:22;;;;;;;2.93;2.60;;;30.80;39.40;;;;;;5071973;28;20492;-69
2023/06/07 12:38:50;;;;;;;2.00;1.80;;;30.70;38.70;;;;;;5071849;28;20488;-68
2023/06/07 12:41:23;;;;;;;2.60;2.40;;;30.80;38.80;;;;;;5071682;28;20814;-68
2023/06/07 12:43:51;;;;;;;2.30;2.20;;;31.00;39.10;;;;;;5071413;28;20469;-68
2023/06/07 12:46:19;;;;;;;2.60;2.40;;;29.90;40.20;;;;;;5071956;28;20695;-68
2023/06/07 12:48:50;;;;;;;2.60;2.20;;;29.50;44.30;;;;;;5071479;28;20483;-67
2023/06/07 12:51:18;;;;;;;2.27;2.07;;;30.50;40.90;;;;;;5071633;28;20443;-68
2023/06/07 12:53:46;;;;;;;2.40;2.20;;;29.80;38.90;;;;;;5071242;28;20863;-67
2023/06/07 12:56:14;;;;;;;2.83;2.30;;;28.90;41.80;;;;;;5071284;28;20808;-67